sensor_id;sensor_type;location;lat;lon;timestamp;P1;durP1;ratioP1;P2;durP2;ratioP2
80211;SDS011;69530;37.974;23.708;2023-04-25T00:01:05;7.03;;;4.85;;
80211;SDS011;69530;37.974;23.708;2023-04-25T00:03:31;7.60;;;4.88;;
80211;SDS011;69530;37.974;23.708;2023-04-25T00:05:58;7.07;;;5.05;;
80211;SDS011;69530;37.974;23.708;2023-04-25T00:08:26;7.38;;;4.63;;
80211;SDS011;69530;37.974;23.708;2023-04-25T00:10:53;8.48;;;5.05;;
80211;SDS011;69530;37.974;23.708;2023-04-25T00:13:19;7.70;;;4.95;;
80211;SDS011;69530;37.974;23.708;2023-04-25T00:15:46;6.47;;;4.28;;
80211;SDS011;69530;37.974;23.708;2023-04-25T00:18:13;7.10;;;4.97;;
80211;SDS011;69530;37.974;23.708;2023-04-25T00:20:39;7.03;;;4.80;;
80211;SDS011;69530;37.974;23.708;2023-04-25T00:23:05;7.38;;;5.03;;
80211;SDS011;69530;37.974;23.708;2023-04-25T00:25:31;8.00;;;5.10;;
80211;SDS011;69530;37.974;23.708;2023-04-25T00:27:57;9.32;;;5.05;;
80211;SDS011;69530;37.974;23.708;2023-04-25T00:30:22;9.35;;;4.93;;
80211;SDS011;69530;37.974;23.708;2023-04-25T00:32:48;6.13;;;4.28;;
80211;SDS011;69530;37.974;23.708;2023-04-25T00:35:14;8.77;;;4.93;;
80211;SDS011;69530;37.974;23.708;2023-04-25T00:37:40;6.93;;;4.82;;
80211;SDS011;69530;37.974;23.708;2023-04-25T00:40:06;8.07;;;4.70;;
80211;SDS011;69530;37.974;23.708;2023-04-25T00:42:32;8.57;;;4.88;;
80211;SDS011;69530;37.974;23.708;2023-04-25T00:45:00;8.43;;;4.40;;
80211;SDS011;69530;37.974;23.708;2023-04-25T00:47:28;7.65;;;4.68;;
80211;SDS011;69530;37.974;23.708;2023-04-25T00:49:54;7.50;;;4.50;;
80211;SDS011;69530;37.974;23.708;2023-04-25T00:52:20;6.15;;;4.22;;
80211;SDS011;69530;37.974;23.708;2023-04-25T00:54:45;6.78;;;4.30;;
80211;SDS011;69530;37.974;23.708;2023-04-25T00:57:11;7.55;;;4.53;;
80211;SDS011;69530;37.974;23.708;2023-04-25T00:59:37;9.23;;;4.82;;
80211;SDS011;69530;37.974;23.708;2023-04-25T01:02:04;6.50;;;4.85;;
80211;SDS011;69530;37.974;23.708;2023-04-25T01:04:30;7.38;;;4.32;;
80211;SDS011;69530;37.974;23.708;2023-04-25T01:06:56;7.35;;;4.18;;
80211;SDS011;69530;37.974;23.708;2023-04-25T01:09:22;7.85;;;4.82;;
80211;SDS011;69530;37.974;23.708;2023-04-25T01:11:49;8.35;;;4.60;;
80211;SDS011;69530;37.974;23.708;2023-04-25T01:14:15;6.07;;;4.57;;
80211;SDS011;69530;37.974;23.708;2023-04-25T01:16:41;7.45;;;4.28;;
80211;SDS011;69530;37.974;23.708;2023-04-25T01:19:08;6.63;;;4.50;;
80211;SDS011;69530;37.974;23.708;2023-04-25T01:21:38;7.85;;;4.45;;
80211;SDS011;69530;37.974;23.708;2023-04-25T01:24:05;8.13;;;4.53;;
80211;SDS011;69530;37.974;23.708;2023-04-25T01:26:31;10.68;;;4.60;;
80211;SDS011;69530;37.974;23.708;2023-04-25T01:28:58;7.07;;;4.05;;
80211;SDS011;69530;37.974;23.708;2023-04-25T01:31:25;7.05;;;4.22;;
80211;SDS011;69530;37.974;23.708;2023-04-25T01:33:52;8.20;;;4.30;;
80211;SDS011;69530;37.974;23.708;2023-04-25T01:36:18;6.65;;;4.47;;
80211;SDS011;69530;37.974;23.708;2023-04-25T01:38:45;6.78;;;4.72;;
80211;SDS011;69530;37.974;23.708;2023-04-25T01:41:12;7.10;;;4.35;;
80211;SDS011;69530;37.974;23.708;2023-04-25T01:43:39;6.72;;;4.30;;
80211;SDS011;69530;37.974;23.708;2023-04-25T01:46:05;7.32;;;4.38;;
80211;SDS011;69530;37.974;23.708;2023-04-25T01:48:31;6.63;;;4.15;;
80211;SDS011;69530;37.974;23.708;2023-04-25T01:50:57;5.90;;;4.07;;
80211;SDS011;69530;37.974;23.708;2023-04-25T01:53:25;6.88;;;3.92;;
80211;SDS011;69530;37.974;23.708;2023-04-25T01:55:53;9.18;;;4.35;;
80211;SDS011;69530;37.974;23.708;2023-04-25T01:58:19;8.20;;;3.90;;
80211;SDS011;69530;37.974;23.708;2023-04-25T02:00:45;7.90;;;4.90;;
80211;SDS011;69530;37.974;23.708;2023-04-25T02:03:11;8.35;;;4.53;;
80211;SDS011;69530;37.974;23.708;2023-04-25T02:05:37;6.30;;;4.25;;
80211;SDS011;69530;37.974;23.708;2023-04-25T02:08:05;7.15;;;4.45;;
80211;SDS011;69530;37.974;23.708;2023-04-25T02:10:32;6.75;;;4.38;;
80211;SDS011;69530;37.974;23.708;2023-04-25T02:12:58;8.18;;;4.28;;
80211;SDS011;69530;37.974;23.708;2023-04-25T02:15:24;6.10;;;4.45;;
80211;SDS011;69530;37.974;23.708;2023-04-25T02:17:50;7.90;;;4.10;;
80211;SDS011;69530;37.974;23.708;2023-04-25T02:20:22;6.60;;;4.25;;
80211;SDS011;69530;37.974;23.708;2023-04-25T02:22:49;7.82;;;4.30;;
80211;SDS011;69530;37.974;23.708;2023-04-25T02:25:15;6.85;;;4.40;;
80211;SDS011;69530;37.974;23.708;2023-04-25T02:27:42;6.35;;;4.15;;
80211;SDS011;69530;37.974;23.708;2023-04-25T02:30:08;6.70;;;4.10;;
80211;SDS011;69530;37.974;23.708;2023-04-25T02:32:34;8.55;;;4.00;;
80211;SDS011;69530;37.974;23.708;2023-04-25T02:35:00;6.72;;;4.07;;
80211;SDS011;69530;37.974;23.708;2023-04-25T02:37:36;6.43;;;4.30;;
80211;SDS011;69530;37.974;23.708;2023-04-25T02:40:02;6.05;;;3.97;;
80211;SDS011;69530;37.974;23.708;2023-04-25T02:42:29;6.22;;;3.92;;
80211;SDS011;69530;37.974;23.708;2023-04-25T02:44:55;6.18;;;3.85;;
80211;SDS011;69530;37.974;23.708;2023-04-25T02:47:21;5.95;;;4.10;;
80211;SDS011;69530;37.974;23.708;2023-04-25T02:49:47;6.95;;;4.15;;
80211;SDS011;69530;37.974;23.708;2023-04-25T02:52:13;7.88;;;4.20;;
80211;SDS011;69530;37.974;23.708;2023-04-25T02:54:39;6.25;;;4.13;;
80211;SDS011;69530;37.974;23.708;2023-04-25T02:57:05;7.60;;;4.82;;
80211;SDS011;69530;37.974;23.708;2023-04-25T02:59:31;5.85;;;4.03;;
80211;SDS011;69530;37.974;23.708;2023-04-25T03:01:57;7.28;;;3.92;;
80211;SDS011;69530;37.974;23.708;2023-04-25T03:04:23;8.02;;;4.47;;
80211;SDS011;69530;37.974;23.708;2023-04-25T03:06:49;7.45;;;5.05;;
80211;SDS011;69530;37.974;23.708;2023-04-25T03:09:16;6.57;;;4.05;;
80211;SDS011;69530;37.974;23.708;2023-04-25T03:11:42;9.32;;;4.82;;
80211;SDS011;69530;37.974;23.708;2023-04-25T03:14:09;6.55;;;4.53;;
80211;SDS011;69530;37.974;23.708;2023-04-25T03:16:35;9.43;;;4.80;;
80211;SDS011;69530;37.974;23.708;2023-04-25T03:19:00;8.25;;;4.78;;
80211;SDS011;69530;37.974;23.708;2023-04-25T03:21:27;9.10;;;4.72;;
80211;SDS011;69530;37.974;23.708;2023-04-25T03:23:52;6.53;;;4.30;;
80211;SDS011;69530;37.974;23.708;2023-04-25T03:26:18;6.75;;;4.20;;
80211;SDS011;69530;37.974;23.708;2023-04-25T03:28:44;9.15;;;4.47;;
80211;SDS011;69530;37.974;23.708;2023-04-25T03:31:10;8.15;;;4.28;;
80211;SDS011;69530;37.974;23.708;2023-04-25T03:33:36;6.80;;;4.55;;
80211;SDS011;69530;37.974;23.708;2023-04-25T03:36:01;11.57;;;4.30;;
80211;SDS011;69530;37.974;23.708;2023-04-25T03:38:27;7.07;;;4.03;;
80211;SDS011;69530;37.974;23.708;2023-04-25T03:40:53;9.35;;;4.90;;
80211;SDS011;69530;37.974;23.708;2023-04-25T03:43:19;10.02;;;4.70;;
80211;SDS011;69530;37.974;23.708;2023-04-25T03:45:45;7.53;;;4.30;;
80211;SDS011;69530;37.974;23.708;2023-04-25T03:48:11;7.35;;;3.90;;
80211;SDS011;69530;37.974;23.708;2023-04-25T03:50:36;8.43;;;4.43;;
80211;SDS011;69530;37.974;23.708;2023-04-25T03:53:02;9.80;;;4.70;;
80211;SDS011;69530;37.974;23.708;2023-04-25T03:55:28;8.40;;;4.22;;
80211;SDS011;69530;37.974;23.708;2023-04-25T03:57:54;8.80;;;4.32;;
80211;SDS011;69530;37.974;23.708;2023-04-25T04:00:19;12.05;;;4.80;;
80211;SDS011;69530;37.974;23.708;2023-04-25T04:02:45;8.18;;;4.43;;
80211;SDS011;69530;37.974;23.708;2023-04-25T04:05:11;9.32;;;4.32;;
80211;SDS011;69530;37.974;23.708;2023-04-25T04:07:37;7.75;;;4.15;;
80211;SDS011;69530;37.974;23.708;2023-04-25T04:10:08;8.75;;;4.35;;
80211;SDS011;69530;37.974;23.708;2023-04-25T04:12:34;18.60;;;4.78;;
80211;SDS011;69530;37.974;23.708;2023-04-25T04:15:04;11.90;;;4.70;;
80211;SDS011;69530;37.974;23.708;2023-04-25T04:17:30;15.40;;;5.70;;
80211;SDS011;69530;37.974;23.708;2023-04-25T04:19:57;18.52;;;5.22;;
80211;SDS011;69530;37.974;23.708;2023-04-25T04:22:23;20.60;;;5.43;;
80211;SDS011;69530;37.974;23.708;2023-04-25T04:24:49;25.45;;;5.80;;
80211;SDS011;69530;37.974;23.708;2023-04-25T04:27:15;31.58;;;6.43;;
80211;SDS011;69530;37.974;23.708;2023-04-25T04:29:45;13.18;;;5.30;;
80211;SDS011;69530;37.974;23.708;2023-04-25T04:32:11;15.43;;;4.68;;
80211;SDS011;69530;37.974;23.708;2023-04-25T04:34:38;21.85;;;5.20;;
80211;SDS011;69530;37.974;23.708;2023-04-25T04:37:04;16.30;;;5.20;;
80211;SDS011;69530;37.974;23.708;2023-04-25T04:39:32;14.07;;;4.80;;
80211;SDS011;69530;37.974;23.708;2023-04-25T04:41:58;11.45;;;4.80;;
80211;SDS011;69530;37.974;23.708;2023-04-25T04:44:24;11.98;;;4.93;;
80211;SDS011;69530;37.974;23.708;2023-04-25T04:46:50;8.52;;;4.35;;
80211;SDS011;69530;37.974;23.708;2023-04-25T04:49:16;10.02;;;4.80;;
80211;SDS011;69530;37.974;23.708;2023-04-25T04:51:42;11.88;;;4.53;;
80211;SDS011;69530;37.974;23.708;2023-04-25T04:54:11;7.18;;;4.32;;
80211;SDS011;69530;37.974;23.708;2023-04-25T04:56:37;10.50;;;4.57;;
80211;SDS011;69530;37.974;23.708;2023-04-25T04:59:03;15.00;;;4.80;;
80211;SDS011;69530;37.974;23.708;2023-04-25T05:01:29;10.43;;;4.85;;
80211;SDS011;69530;37.974;23.708;2023-04-25T05:03:55;12.35;;;4.78;;
80211;SDS011;69530;37.974;23.708;2023-04-25T05:06:25;10.55;;;4.63;;
80211;SDS011;69530;37.974;23.708;2023-04-25T05:08:54;8.07;;;4.32;;
80211;SDS011;69530;37.974;23.708;2023-04-25T05:11:20;8.48;;;5.25;;
80211;SDS011;69530;37.974;23.708;2023-04-25T05:13:46;14.55;;;6.13;;
80211;SDS011;69530;37.974;23.708;2023-04-25T05:16:12;11.40;;;5.30;;
80211;SDS011;69530;37.974;23.708;2023-04-25T05:18:39;10.00;;;4.43;;
80211;SDS011;69530;37.974;23.708;2023-04-25T05:21:05;7.88;;;4.13;;
80211;SDS011;69530;37.974;23.708;2023-04-25T05:23:32;8.82;;;5.00;;
80211;SDS011;69530;37.974;23.708;2023-04-25T05:25:58;8.52;;;5.50;;
80211;SDS011;69530;37.974;23.708;2023-04-25T05:28:24;7.05;;;4.70;;
80211;SDS011;69530;37.974;23.708;2023-04-25T05:30:50;5.90;;;4.35;;
80211;SDS011;69530;37.974;23.708;2023-04-25T05:33:16;8.02;;;4.68;;
80211;SDS011;69530;37.974;23.708;2023-04-25T05:35:42;8.75;;;5.03;;
80211;SDS011;69530;37.974;23.708;2023-04-25T05:38:08;8.18;;;4.32;;
80211;SDS011;69530;37.974;23.708;2023-04-25T05:40:34;8.68;;;4.10;;
80211;SDS011;69530;37.974;23.708;2023-04-25T05:42:59;8.85;;;3.92;;
80211;SDS011;69530;37.974;23.708;2023-04-25T05:45:25;7.43;;;3.75;;
80211;SDS011;69530;37.974;23.708;2023-04-25T05:47:51;7.05;;;3.63;;
80211;SDS011;69530;37.974;23.708;2023-04-25T05:50:17;7.10;;;3.28;;
80211;SDS011;69530;37.974;23.708;2023-04-25T05:52:43;8.38;;;3.67;;
80211;SDS011;69530;37.974;23.708;2023-04-25T05:55:08;5.53;;;3.55;;
80211;SDS011;69530;37.974;23.708;2023-04-25T05:57:34;6.97;;;3.95;;
80211;SDS011;69530;37.974;23.708;2023-04-25T06:00:00;5.97;;;3.25;;
80211;SDS011;69530;37.974;23.708;2023-04-25T06:02:26;7.20;;;3.10;;
80211;SDS011;69530;37.974;23.708;2023-04-25T06:04:52;7.72;;;3.78;;
80211;SDS011;69530;37.974;23.708;2023-04-25T06:07:18;5.30;;;3.03;;
80211;SDS011;69530;37.974;23.708;2023-04-25T06:09:44;6.90;;;3.30;;
80211;SDS011;69530;37.974;23.708;2023-04-25T06:12:10;6.65;;;3.22;;
80211;SDS011;69530;37.974;23.708;2023-04-25T06:14:36;4.55;;;2.50;;
80211;SDS011;69530;37.974;23.708;2023-04-25T06:17:02;5.22;;;3.17;;
80211;SDS011;69530;37.974;23.708;2023-04-25T06:19:33;3.83;;;2.42;;
80211;SDS011;69530;37.974;23.708;2023-04-25T06:22:00;6.68;;;2.67;;
80211;SDS011;69530;37.974;23.708;2023-04-25T06:24:26;4.43;;;2.20;;
80211;SDS011;69530;37.974;23.708;2023-04-25T06:26:53;6.60;;;2.45;;
80211;SDS011;69530;37.974;23.708;2023-04-25T06:29:19;4.38;;;2.10;;
80211;SDS011;69530;37.974;23.708;2023-04-25T06:31:45;5.68;;;2.33;;
80211;SDS011;69530;37.974;23.708;2023-04-25T06:34:11;3.00;;;2.00;;
80211;SDS011;69530;37.974;23.708;2023-04-25T06:36:37;4.45;;;2.00;;
80211;SDS011;69530;37.974;23.708;2023-04-25T06:39:02;4.45;;;1.83;;
80211;SDS011;69530;37.974;23.708;2023-04-25T06:41:28;4.72;;;1.98;;
80211;SDS011;69530;37.974;23.708;2023-04-25T06:43:54;4.00;;;2.00;;
80211;SDS011;69530;37.974;23.708;2023-04-25T06:46:20;7.63;;;2.20;;
80211;SDS011;69530;37.974;23.708;2023-04-25T06:48:45;3.17;;;1.95;;
80211;SDS011;69530;37.974;23.708;2023-04-25T06:51:11;3.08;;;1.70;;
80211;SDS011;69530;37.974;23.708;2023-04-25T06:53:38;4.75;;;2.10;;
80211;SDS011;69530;37.974;23.708;2023-04-25T06:56:04;2.63;;;1.90;;
80211;SDS011;69530;37.974;23.708;2023-04-25T06:58:31;3.67;;;1.70;;
80211;SDS011;69530;37.974;23.708;2023-04-25T07:00:57;7.30;;;1.98;;
80211;SDS011;69530;37.974;23.708;2023-04-25T07:03:22;3.67;;;2.00;;
80211;SDS011;69530;37.974;23.708;2023-04-25T07:05:49;7.75;;;2.10;;
80211;SDS011;69530;37.974;23.708;2023-04-25T07:08:17;6.15;;;2.05;;
80211;SDS011;69530;37.974;23.708;2023-04-25T07:10:45;4.13;;;2.40;;
80211;SDS011;69530;37.974;23.708;2023-04-25T07:13:11;4.80;;;2.30;;
80211;SDS011;69530;37.974;23.708;2023-04-25T07:15:37;4.47;;;2.45;;
80211;SDS011;69530;37.974;23.708;2023-04-25T07:18:02;5.00;;;2.20;;
80211;SDS011;69530;37.974;23.708;2023-04-25T07:20:28;4.75;;;2.47;;
80211;SDS011;69530;37.974;23.708;2023-04-25T07:22:55;4.50;;;2.33;;
80211;SDS011;69530;37.974;23.708;2023-04-25T07:25:22;5.45;;;2.45;;
80211;SDS011;69530;37.974;23.708;2023-04-25T07:27:47;5.57;;;2.10;;
80211;SDS011;69530;37.974;23.708;2023-04-25T07:30:13;3.08;;;1.65;;
80211;SDS011;69530;37.974;23.708;2023-04-25T07:32:39;8.25;;;2.08;;
80211;SDS011;69530;37.974;23.708;2023-04-25T07:35:05;4.95;;;2.30;;
80211;SDS011;69530;37.974;23.708;2023-04-25T07:37:32;4.70;;;1.83;;
80211;SDS011;69530;37.974;23.708;2023-04-25T07:39:58;5.15;;;1.90;;
80211;SDS011;69530;37.974;23.708;2023-04-25T07:42:25;4.25;;;1.80;;
80211;SDS011;69530;37.974;23.708;2023-04-25T07:44:52;4.43;;;2.13;;
80211;SDS011;69530;37.974;23.708;2023-04-25T07:47:17;4.32;;;2.40;;
80211;SDS011;69530;37.974;23.708;2023-04-25T07:49:44;5.00;;;2.20;;
80211;SDS011;69530;37.974;23.708;2023-04-25T07:52:10;3.67;;;2.20;;
80211;SDS011;69530;37.974;23.708;2023-04-25T07:54:36;4.18;;;1.92;;
80211;SDS011;69530;37.974;23.708;2023-04-25T07:57:02;4.07;;;1.92;;
80211;SDS011;69530;37.974;23.708;2023-04-25T07:59:28;3.22;;;1.70;;
80211;SDS011;69530;37.974;23.708;2023-04-25T08:01:54;3.38;;;1.95;;
80211;SDS011;69530;37.974;23.708;2023-04-25T08:04:21;4.68;;;1.95;;
80211;SDS011;69530;37.974;23.708;2023-04-25T08:06:47;3.30;;;2.10;;
80211;SDS011;69530;37.974;23.708;2023-04-25T08:09:13;4.53;;;1.95;;
80211;SDS011;69530;37.974;23.708;2023-04-25T08:11:40;4.97;;;2.63;;
80211;SDS011;69530;37.974;23.708;2023-04-25T08:14:06;3.78;;;2.08;;
80211;SDS011;69530;37.974;23.708;2023-04-25T08:16:32;2.58;;;1.83;;
80211;SDS011;69530;37.974;23.708;2023-04-25T08:18:58;2.95;;;2.00;;
80211;SDS011;69530;37.974;23.708;2023-04-25T08:21:25;2.63;;;1.65;;
80211;SDS011;69530;37.974;23.708;2023-04-25T08:23:52;4.10;;;2.65;;
80211;SDS011;69530;37.974;23.708;2023-04-25T08:26:18;4.20;;;1.88;;
80211;SDS011;69530;37.974;23.708;2023-04-25T08:28:43;4.13;;;2.03;;
80211;SDS011;69530;37.974;23.708;2023-04-25T08:31:09;4.68;;;2.13;;
80211;SDS011;69530;37.974;23.708;2023-04-25T08:33:35;4.22;;;1.88;;
80211;SDS011;69530;37.974;23.708;2023-04-25T08:36:01;4.13;;;2.30;;
80211;SDS011;69530;37.974;23.708;2023-04-25T08:38:27;4.38;;;1.80;;
80211;SDS011;69530;37.974;23.708;2023-04-25T08:40:53;3.22;;;1.90;;
80211;SDS011;69530;37.974;23.708;2023-04-25T08:43:20;4.10;;;2.10;;
80211;SDS011;69530;37.974;23.708;2023-04-25T08:45:46;3.85;;;2.03;;
80211;SDS011;69530;37.974;23.708;2023-04-25T08:48:13;4.10;;;2.08;;
80211;SDS011;69530;37.974;23.708;2023-04-25T08:50:50;3.33;;;1.90;;
80211;SDS011;69530;37.974;23.708;2023-04-25T08:53:22;3.30;;;2.10;;
80211;SDS011;69530;37.974;23.708;2023-04-25T08:55:51;3.00;;;1.90;;
80211;SDS011;69530;37.974;23.708;2023-04-25T08:58:19;5.35;;;1.92;;
80211;SDS011;69530;37.974;23.708;2023-04-25T09:00:46;2.85;;;1.80;;
80211;SDS011;69530;37.974;23.708;2023-04-25T09:03:13;5.90;;;2.88;;
80211;SDS011;69530;37.974;23.708;2023-04-25T09:05:40;2.30;;;1.88;;
80211;SDS011;69530;37.974;23.708;2023-04-25T09:08:06;2.95;;;2.13;;
80211;SDS011;69530;37.974;23.708;2023-04-25T09:10:32;3.78;;;1.60;;
80211;SDS011;69530;37.974;23.708;2023-04-25T09:13:11;6.70;;;1.77;;
80211;SDS011;69530;37.974;23.708;2023-04-25T09:15:52;6.13;;;1.65;;
80211;SDS011;69530;37.974;23.708;2023-04-25T09:20:49;3.13;;;1.80;;
80211;SDS011;69530;37.974;23.708;2023-04-25T09:23:18;4.00;;;1.95;;
80211;SDS011;69530;37.974;23.708;2023-04-25T09:25:47;4.93;;;1.55;;
80211;SDS011;69530;37.974;23.708;2023-04-25T09:31:24;3.22;;;1.80;;
80211;SDS011;69530;37.974;23.708;2023-04-25T09:33:50;2.78;;;1.83;;
80211;SDS011;69530;37.974;23.708;2023-04-25T09:36:31;3.20;;;2.08;;
80211;SDS011;69530;37.974;23.708;2023-04-25T09:39:01;3.67;;;2.15;;
80211;SDS011;69530;37.974;23.708;2023-04-25T09:41:28;4.00;;;2.17;;
80211;SDS011;69530;37.974;23.708;2023-04-25T09:43:56;4.63;;;2.50;;
80211;SDS011;69530;37.974;23.708;2023-04-25T09:46:23;8.05;;;2.70;;
80211;SDS011;69530;37.974;23.708;2023-04-25T09:48:50;4.30;;;2.17;;
80211;SDS011;69530;37.974;23.708;2023-04-25T09:51:16;8.43;;;2.58;;
80211;SDS011;69530;37.974;23.708;2023-04-25T09:53:42;4.68;;;2.30;;
80211;SDS011;69530;37.974;23.708;2023-04-25T09:56:11;3.45;;;2.20;;
80211;SDS011;69530;37.974;23.708;2023-04-25T09:58:41;3.70;;;1.90;;
80211;SDS011;69530;37.974;23.708;2023-04-25T10:01:08;3.60;;;1.95;;
80211;SDS011;69530;37.974;23.708;2023-04-25T10:03:36;3.50;;;1.83;;
80211;SDS011;69530;37.974;23.708;2023-04-25T10:06:13;3.60;;;1.90;;
80211;SDS011;69530;37.974;23.708;2023-04-25T10:08:44;5.53;;;2.30;;
80211;SDS011;69530;37.974;23.708;2023-04-25T10:11:14;6.22;;;2.78;;
80211;SDS011;69530;37.974;23.708;2023-04-25T10:13:41;4.97;;;2.17;;
80211;SDS011;69530;37.974;23.708;2023-04-25T10:16:07;4.13;;;2.45;;
80211;SDS011;69530;37.974;23.708;2023-04-25T10:18:33;3.65;;;1.70;;
80211;SDS011;69530;37.974;23.708;2023-04-25T10:20:59;3.28;;;1.90;;
80211;SDS011;69530;37.974;23.708;2023-04-25T10:23:27;8.23;;;2.10;;
80211;SDS011;69530;37.974;23.708;2023-04-25T10:25:54;3.58;;;2.10;;
80211;SDS011;69530;37.974;23.708;2023-04-25T10:28:20;2.78;;;1.73;;
80211;SDS011;69530;37.974;23.708;2023-04-25T10:31:03;3.42;;;1.77;;
80211;SDS011;69530;37.974;23.708;2023-04-25T10:36:12;4.18;;;1.88;;
80211;SDS011;69530;37.974;23.708;2023-04-25T10:38:39;4.68;;;1.90;;
80211;SDS011;69530;37.974;23.708;2023-04-25T10:41:07;4.18;;;2.22;;
80211;SDS011;69530;37.974;23.708;2023-04-25T10:43:36;4.72;;;2.17;;
80211;SDS011;69530;37.974;23.708;2023-04-25T10:51:37;5.07;;;2.22;;
80211;SDS011;69530;37.974;23.708;2023-04-25T10:54:06;4.38;;;2.10;;
80211;SDS011;69530;37.974;23.708;2023-04-25T11:01:38;6.07;;;2.17;;
80211;SDS011;69530;37.974;23.708;2023-04-25T11:04:21;3.72;;;2.35;;
80211;SDS011;69530;37.974;23.708;2023-04-25T11:09:36;4.75;;;1.80;;
80211;SDS011;69530;37.974;23.708;2023-04-25T11:12:07;3.15;;;2.10;;
80211;SDS011;69530;37.974;23.708;2023-04-25T11:14:33;4.50;;;2.15;;
80211;SDS011;69530;37.974;23.708;2023-04-25T11:16:59;5.72;;;2.10;;
80211;SDS011;69530;37.974;23.708;2023-04-25T11:19:27;3.70;;;2.20;;
80211;SDS011;69530;37.974;23.708;2023-04-25T11:22:00;5.38;;;1.92;;
80211;SDS011;69530;37.974;23.708;2023-04-25T11:24:27;3.10;;;1.90;;
80211;SDS011;69530;37.974;23.708;2023-04-25T11:26:53;2.67;;;1.52;;
80211;SDS011;69530;37.974;23.708;2023-04-25T11:29:21;3.58;;;2.00;;
80211;SDS011;69530;37.974;23.708;2023-04-25T11:31:48;3.78;;;1.83;;
80211;SDS011;69530;37.974;23.708;2023-04-25T11:34:17;5.63;;;2.00;;
80211;SDS011;69530;37.974;23.708;2023-04-25T11:36:44;3.10;;;1.80;;
80211;SDS011;69530;37.974;23.708;2023-04-25T11:39:12;7.88;;;2.10;;
80211;SDS011;69530;37.974;23.708;2023-04-25T11:41:38;3.65;;;1.80;;
80211;SDS011;69530;37.974;23.708;2023-04-25T11:44:05;7.15;;;1.77;;
80211;SDS011;69530;37.974;23.708;2023-04-25T11:46:33;2.90;;;1.50;;
80211;SDS011;69530;37.974;23.708;2023-04-25T11:49:00;3.17;;;1.75;;
80211;SDS011;69530;37.974;23.708;2023-04-25T11:51:25;2.67;;;1.38;;
80211;SDS011;69530;37.974;23.708;2023-04-25T11:53:53;2.45;;;1.40;;
80211;SDS011;69530;37.974;23.708;2023-04-25T11:56:19;3.80;;;1.70;;
80211;SDS011;69530;37.974;23.708;2023-04-25T11:58:59;2.58;;;1.60;;
80211;SDS011;69530;37.974;23.708;2023-04-25T12:01:29;6.53;;;1.83;;
80211;SDS011;69530;37.974;23.708;2023-04-25T12:03:57;3.28;;;2.00;;
80211;SDS011;69530;37.974;23.708;2023-04-25T12:06:30;4.28;;;1.65;;
80211;SDS011;69530;37.974;23.708;2023-04-25T12:09:03;5.47;;;2.13;;
80211;SDS011;69530;37.974;23.708;2023-04-25T12:11:32;3.20;;;1.75;;
80211;SDS011;69530;37.974;23.708;2023-04-25T12:14:05;3.15;;;1.77;;
80211;SDS011;69530;37.974;23.708;2023-04-25T12:16:41;3.35;;;1.80;;
80211;SDS011;69530;37.974;23.708;2023-04-25T12:19:08;5.05;;;1.90;;
80211;SDS011;69530;37.974;23.708;2023-04-25T12:21:34;1.75;;;1.40;;
80211;SDS011;69530;37.974;23.708;2023-04-25T12:24:09;3.33;;;1.75;;
80211;SDS011;69530;37.974;23.708;2023-04-25T12:27:02;5.03;;;2.75;;
80211;SDS011;69530;37.974;23.708;2023-04-25T12:32:30;4.45;;;2.28;;
80211;SDS011;69530;37.974;23.708;2023-04-25T12:34:56;5.97;;;2.20;;
80211;SDS011;69530;37.974;23.708;2023-04-25T12:37:22;4.40;;;2.17;;
80211;SDS011;69530;37.974;23.708;2023-04-25T12:39:48;5.65;;;1.90;;
80211;SDS011;69530;37.974;23.708;2023-04-25T12:42:13;3.15;;;1.80;;
80211;SDS011;69530;37.974;23.708;2023-04-25T12:44:41;6.72;;;2.03;;
80211;SDS011;69530;37.974;23.708;2023-04-25T12:47:10;2.72;;;1.90;;
80211;SDS011;69530;37.974;23.708;2023-04-25T12:49:38;3.42;;;1.63;;
80211;SDS011;69530;37.974;23.708;2023-04-25T12:52:04;4.18;;;1.75;;
80211;SDS011;69530;37.974;23.708;2023-04-25T12:54:30;4.90;;;1.90;;
80211;SDS011;69530;37.974;23.708;2023-04-25T12:56:56;2.40;;;1.63;;
80211;SDS011;69530;37.974;23.708;2023-04-25T12:59:22;3.92;;;1.80;;
80211;SDS011;69530;37.974;23.708;2023-04-25T13:01:48;4.65;;;2.15;;
80211;SDS011;69530;37.974;23.708;2023-04-25T13:04:14;2.97;;;1.70;;
80211;SDS011;69530;37.974;23.708;2023-04-25T13:06:40;4.22;;;1.77;;
80211;SDS011;69530;37.974;23.708;2023-04-25T13:09:06;3.28;;;1.88;;
80211;SDS011;69530;37.974;23.708;2023-04-25T13:11:32;3.10;;;1.73;;
80211;SDS011;69530;37.974;23.708;2023-04-25T13:13:57;2.47;;;1.63;;
80211;SDS011;69530;37.974;23.708;2023-04-25T13:16:23;5.10;;;1.80;;
80211;SDS011;69530;37.974;23.708;2023-04-25T13:18:49;5.30;;;1.85;;
80211;SDS011;69530;37.974;23.708;2023-04-25T13:21:14;4.38;;;2.60;;
80211;SDS011;69530;37.974;23.708;2023-04-25T13:23:40;3.80;;;2.05;;
80211;SDS011;69530;37.974;23.708;2023-04-25T13:26:07;3.47;;;2.17;;
80211;SDS011;69530;37.974;23.708;2023-04-25T13:28:33;6.93;;;2.20;;
80211;SDS011;69530;37.974;23.708;2023-04-25T13:30:59;4.45;;;2.10;;
80211;SDS011;69530;37.974;23.708;2023-04-25T13:33:25;5.38;;;2.00;;
80211;SDS011;69530;37.974;23.708;2023-04-25T13:35:50;2.33;;;1.90;;
80211;SDS011;69530;37.974;23.708;2023-04-25T13:38:21;3.28;;;2.00;;
80211;SDS011;69530;37.974;23.708;2023-04-25T13:40:48;2.92;;;1.67;;
80211;SDS011;69530;37.974;23.708;2023-04-25T13:43:15;2.55;;;1.73;;
80211;SDS011;69530;37.974;23.708;2023-04-25T13:45:41;4.13;;;1.85;;
80211;SDS011;69530;37.974;23.708;2023-04-25T13:48:07;3.97;;;2.00;;
80211;SDS011;69530;37.974;23.708;2023-04-25T13:50:32;3.25;;;2.03;;
80211;SDS011;69530;37.974;23.708;2023-04-25T13:52:58;3.22;;;2.05;;
80211;SDS011;69530;37.974;23.708;2023-04-25T13:55:24;2.60;;;1.70;;
80211;SDS011;69530;37.974;23.708;2023-04-25T13:57:49;4.30;;;1.95;;
80211;SDS011;69530;37.974;23.708;2023-04-25T14:00:15;3.30;;;1.98;;
80211;SDS011;69530;37.974;23.708;2023-04-25T14:02:41;3.70;;;2.15;;
80211;SDS011;69530;37.974;23.708;2023-04-25T14:05:07;4.60;;;2.58;;
80211;SDS011;69530;37.974;23.708;2023-04-25T14:07:34;3.47;;;1.95;;
80211;SDS011;69530;37.974;23.708;2023-04-25T14:10:00;4.22;;;2.03;;
80211;SDS011;69530;37.974;23.708;2023-04-25T14:12:25;2.92;;;1.85;;
80211;SDS011;69530;37.974;23.708;2023-04-25T14:14:51;2.67;;;1.60;;
80211;SDS011;69530;37.974;23.708;2023-04-25T14:17:18;3.65;;;1.75;;
80211;SDS011;69530;37.974;23.708;2023-04-25T14:19:44;4.53;;;1.90;;
80211;SDS011;69530;37.974;23.708;2023-04-25T14:22:12;2.70;;;1.77;;
80211;SDS011;69530;37.974;23.708;2023-04-25T14:24:39;3.97;;;1.75;;
80211;SDS011;69530;37.974;23.708;2023-04-25T14:27:05;3.63;;;2.45;;
80211;SDS011;69530;37.974;23.708;2023-04-25T14:29:31;3.67;;;1.90;;
80211;SDS011;69530;37.974;23.708;2023-04-25T14:31:56;3.35;;;2.03;;
80211;SDS011;69530;37.974;23.708;2023-04-25T14:34:23;2.90;;;1.95;;
80211;SDS011;69530;37.974;23.708;2023-04-25T14:36:52;3.40;;;1.67;;
80211;SDS011;69530;37.974;23.708;2023-04-25T14:39:18;3.88;;;2.17;;
80211;SDS011;69530;37.974;23.708;2023-04-25T14:41:44;3.55;;;1.85;;
80211;SDS011;69530;37.974;23.708;2023-04-25T14:44:10;2.72;;;1.92;;
80211;SDS011;69530;37.974;23.708;2023-04-25T14:46:36;3.47;;;1.80;;
80211;SDS011;69530;37.974;23.708;2023-04-25T14:49:02;2.65;;;1.98;;
80211;SDS011;69530;37.974;23.708;2023-04-25T14:51:28;4.78;;;2.22;;
80211;SDS011;69530;37.974;23.708;2023-04-25T14:53:54;3.47;;;1.92;;
80211;SDS011;69530;37.974;23.708;2023-04-25T14:56:20;2.35;;;1.80;;